Terminal Aerodrome Forecast
Issued by NWS North Platte, NE

Home | Current Version | Previous Version | Text Only | Print | Product List | Glossary Off
Versions: 1 2 3 4 5 6 7 8 9 10 11 12 13 14 15 16

565
FTUS43 KLBF 120202 AAA
TAFVTN
TAF AMD
KVTN 120202Z 1202/1224 33011KT P6SM OVC035
     FM120500 31009KT P6SM SCT030
     FM121500 27010KT P6SM SCT100=

USA.gov is the U.S. government's official web portal to all federal, state and local government web resources and services.